Time,TemperatureF,DewpointF,PressureIn,WindDirection,WindDirectionDegrees,WindSpeedMPH,WindSpeedGustMPH,Humidity,HourlyPrecipIn,Conditions,Clouds,dailyrainin,SoftwareType,DateUTC
2013-04-20 00:01:00,42.8,32.2,29.91,SSE,158,3.4,6.9,66,0.00,,,0.00,WUHU216HW,2013-04-20 04:01:00,
2013-04-20 00:06:00,43.0,32.4,29.91,SSE,158,3.8,6.9,66,0.00,,,0.00,WUHU216HW,2013-04-20 04:06:00,
2013-04-20 00:11:00,43.0,32.1,29.90,SE,135,12.1,12.1,65,0.00,,,0.00,WUHU216HW,2013-04-20 04:11:00,
2013-04-20 00:16:00,42.8,31.1,29.91,South,180,7.6,12.1,63,0.00,,,0.00,WUHU216HW,2013-04-20 04:16:00,
2013-04-20 00:21:00,42.8,31.1,29.91,South,180,5.8,11.4,63,0.00,,,0.00,WUHU216HW,2013-04-20 04:21:00,
2013-04-20 00:26:00,42.7,30.5,29.91,SSE,158,5.6,10.5,62,0.00,,,0.00,WUHU216HW,2013-04-20 04:26:00,
2013-04-20 00:31:00,42.7,30.5,29.91,SSW,203,8.9,11.4,62,0.00,,,0.00,WUHU216HW,2013-04-20 04:31:00,
2013-04-20 00:36:00,42.7,30.2,29.92,SE,135,8.9,11.4,61,0.00,,,0.00,WUHU216HW,2013-04-20 04:36:00,
2013-04-20 00:41:00,42.7,30.5,29.92,South,180,7.2,10.7,62,0.00,,,0.00,WUHU216HW,2013-04-20 04:41:00,
2013-04-20 00:46:00,42.7,30.2,29.92,SE,135,7.6,12.8,61,0.00,,,0.00,WUHU216HW,2013-04-20 04:46:00,
2013-04-20 00:51:00,42.7,30.2,29.92,South,180,7.6,12.8,61,0.00,,,0.00,WUHU216HW,2013-04-20 04:51:00,
2013-04-20 00:56:00,42.7,30.2,29.92,SSW,203,6.0,10.5,61,0.00,,,0.00,WUHU216HW,2013-04-20 04:56:00,
2013-04-20 01:01:00,42.7,30.2,29.92,SSE,158,2.7,8.5,61,0.00,,,0.00,WUHU216HW,2013-04-20 05:01:00,
2013-04-20 01:06:00,42.7,30.2,29.93,SSE,158,7.6,10.5,61,0.00,,,0.00,WUHU216HW,2013-04-20 05:06:00,
2013-04-20 01:11:00,42.7,30.5,29.93,ESE,113,4.7,10.5,62,0.00,,,0.00,WUHU216HW,2013-04-20 05:11:00,
2013-04-20 01:16:00,42.7,30.5,29.93,SE,135,7.8,13.4,62,0.00,,,0.00,WUHU216HW,2013-04-20 05:16:00,
2013-04-20 01:21:00,42.7,30.5,29.93,SSE,158,9.2,13.4,62,0.00,,,0.00,WUHU216HW,2013-04-20 05:21:00,
2013-04-20 01:26:00,42.5,31.2,29.93,SSW,203,6.3,11.9,64,0.00,,,0.00,WUHU216HW,2013-04-20 05:26:00,
2013-04-20 01:31:00,42.1,31.6,29.94,SSE,158,6.7,11.2,66,0.00,,,0.00,WUHU216HW,2013-04-20 05:31:00,
2013-04-20 01:36:00,41.8,31.6,29.94,SSE,158,8.5,14.3,67,0.00,,,0.00,WUHU216HW,2013-04-20 05:36:00,
2013-04-20 01:41:00,41.2,31.9,29.94,SSE,158,7.8,15.7,69,0.00,,,0.00,WUHU216HW,2013-04-20 05:41:00,
2013-04-20 01:46:00,40.7,32.1,29.94,SE,135,6.7,15.7,71,0.00,,,0.00,WUHU216HW,2013-04-20 05:46:00,
2013-04-20 01:51:00,40.3,31.7,29.94,SE,135,4.9,8.5,71,0.00,,,0.00,WUHU216HW,2013-04-20 05:51:00,
2013-04-20 01:56:00,40.3,32.0,29.94,SSE,158,5.6,6.9,72,0.00,,,0.00,WUHU216HW,2013-04-20 05:56:00,
2013-04-20 02:01:00,40.3,32.0,29.94,SSE,158,4.5,6.9,72,0.00,,,0.00,WUHU216HW,2013-04-20 06:01:00,
2013-04-20 02:06:00,40.5,32.1,29.94,SE,135,3.4,6.9,72,0.00,,,0.00,WUHU216HW,2013-04-20 06:06:00,
2013-04-20 02:11:00,40.7,32.3,29.94,SSE,158,4.7,7.8,72,0.00,,,0.00,WUHU216HW,2013-04-20 06:11:00,
2013-04-20 02:16:00,40.7,32.1,29.93,SE,135,6.5,7.8,71,0.00,,,0.00,WUHU216HW,2013-04-20 06:16:00,
2013-04-20 02:21:00,40.9,32.2,29.94,SSE,158,6.5,8.5,71,0.00,,,0.00,WUHU216HW,2013-04-20 06:21:00,
2013-04-20 02:26:00,40.9,32.2,29.94,SSE,158,4.3,8.5,71,0.00,,,0.00,WUHU216HW,2013-04-20 06:26:00,
2013-04-20 02:31:00,41.0,32.4,29.94,SE,135,5.6,7.2,71,0.00,,,0.00,WUHU216HW,2013-04-20 06:31:00,
2013-04-20 02:36:00,41.2,32.2,29.94,SSE,158,5.8,11.9,70,0.00,,,0.00,WUHU216HW,2013-04-20 06:36:00,
2013-04-20 02:41:00,41.2,31.5,29.94,SE,135,15.7,15.7,68,0.00,,,0.00,WUHU216HW,2013-04-20 06:41:00,
2013-04-20 02:46:00,41.0,30.9,29.94,SSE,158,14.1,17.9,67,0.00,,,0.00,WUHU216HW,2013-04-20 06:46:00,
2013-04-20 02:51:00,41.0,30.9,29.94,SSE,158,13.4,17.9,67,0.00,,,0.00,WUHU216HW,2013-04-20 06:51:00,
2013-04-20 02:56:00,41.0,30.9,29.94,East,90,11.4,14.1,67,0.00,,,0.00,WUHU216HW,2013-04-20 06:56:00,
2013-04-20 03:01:00,41.0,30.9,29.94,ESE,113,5.4,11.9,67,0.00,,,0.00,WUHU216HW,2013-04-20 07:01:00,
2013-04-20 03:06:00,41.0,30.9,29.94,SSE,158,8.5,14.5,67,0.00,,,0.00,WUHU216HW,2013-04-20 07:06:00,
2013-04-20 03:11:00,41.2,31.1,29.94,ESE,113,10.5,14.5,67,0.00,,,0.00,WUHU216HW,2013-04-20 07:11:00,
2013-04-20 03:16:00,41.0,30.9,29.94,SSE,158,6.9,11.4,67,0.00,,,0.00,WUHU216HW,2013-04-20 07:16:00,
2013-04-20 03:21:00,41.0,31.7,29.94,SSE,158,14.3,14.8,69,0.00,,,0.00,WUHU216HW,2013-04-20 07:21:00,
2013-04-20 03:26:00,40.7,31.3,29.95,SSE,158,9.2,14.8,69,0.00,,,0.00,WUHU216HW,2013-04-20 07:26:00,
2013-04-20 03:31:00,40.7,31.7,29.95,SSE,158,9.4,14.3,70,0.00,,,0.00,WUHU216HW,2013-04-20 07:31:00,
2013-04-20 03:36:00,40.5,31.9,29.95,ESE,113,8.3,14.3,71,0.00,,,0.00,WUHU216HW,2013-04-20 07:36:00,
2013-04-20 03:41:00,40.0,32.3,29.95,South,180,10.3,15.4,74,0.00,,,0.00,WUHU216HW,2013-04-20 07:41:00,
2013-04-20 03:46:00,39.4,32.5,29.95,SSE,158,6.0,15.4,76,0.00,,,0.00,WUHU216HW,2013-04-20 07:46:00,
2013-04-20 03:51:00,39.1,32.5,29.95,SSE,158,7.4,13.0,77,0.00,,,0.00,WUHU216HW,2013-04-20 07:51:00,
2013-04-20 03:56:00,38.9,32.3,29.95,SE,135,3.6,10.7,77,0.00,,,0.00,WUHU216HW,2013-04-20 07:56:00,
2013-04-20 04:01:00,38.9,32.6,29.95,ESE,113,4.3,9.8,78,0.00,,,0.00,WUHU216HW,2013-04-20 08:01:00,
2013-04-20 04:06:00,38.7,32.8,29.96,SSE,158,6.5,10.3,79,0.00,,,0.00,WUHU216HW,2013-04-20 08:06:00,
2013-04-20 04:11:00,38.7,32.8,29.96,SSE,158,10.3,13.4,79,0.00,,,0.00,WUHU216HW,2013-04-20 08:11:00,
2013-04-20 04:16:00,38.5,32.6,29.96,SSE,158,7.6,13.4,79,0.00,,,0.00,WUHU216HW,2013-04-20 08:16:00,
2013-04-20 04:21:00,38.5,32.6,29.96,South,180,6.0,13.0,79,0.00,,,0.00,WUHU216HW,2013-04-20 08:21:00,
2013-04-20 04:26:00,38.5,32.6,29.96,South,180,6.7,8.3,79,0.00,,,0.00,WUHU216HW,2013-04-20 08:26:00,
2013-04-20 04:31:00,38.5,32.6,29.96,South,180,2.9,8.3,79,0.00,,,0.00,WUHU216HW,2013-04-20 08:31:00,
2013-04-20 04:36:00,38.5,32.6,29.97,South,180,4.3,7.2,79,0.00,,,0.00,WUHU216HW,2013-04-20 08:36:00,
2013-04-20 04:41:00,38.7,32.8,29.97,South,180,6.9,9.8,79,0.00,,,0.00,WUHU216HW,2013-04-20 08:41:00,
2013-04-20 04:46:00,38.7,32.8,29.97,SSE,158,4.7,9.8,79,0.00,,,0.00,WUHU216HW,2013-04-20 08:46:00,
2013-04-20 04:51:00,38.7,33.1,29.97,SSE,158,6.3,11.2,80,0.00,,,0.00,WUHU216HW,2013-04-20 08:51:00,
2013-04-20 04:56:00,38.5,32.9,29.98,SSE,158,4.7,11.2,80,0.00,,,0.00,WUHU216HW,2013-04-20 08:56:00,
2013-04-20 05:01:00,38.5,32.9,29.98,SSE,158,6.3,8.5,80,0.00,,,0.00,WUHU216HW,2013-04-20 09:01:00,
2013-04-20 05:06:00,38.3,32.8,29.98,SE,135,5.4,6.9,80,0.00,,,0.00,WUHU216HW,2013-04-20 09:06:00,
2013-04-20 05:11:00,38.2,32.6,29.98,SSE,158,4.9,9.6,80,0.00,,,0.00,WUHU216HW,2013-04-20 09:11:00,
2013-04-20 05:16:00,38.0,32.4,29.98,South,180,5.8,9.6,80,0.00,,,0.00,WUHU216HW,2013-04-20 09:16:00,
2013-04-20 05:21:00,37.8,32.2,29.98,SSE,158,5.4,8.3,80,0.00,,,0.00,WUHU216HW,2013-04-20 09:21:00,
2013-04-20 05:26:00,37.8,32.2,29.98,SE,135,9.2,9.2,80,0.00,,,0.00,WUHU216HW,2013-04-20 09:26:00,
2013-04-20 05:31:00,37.8,32.2,29.98,SSE,158,6.3,9.2,80,0.00,,,0.00,WUHU216HW,2013-04-20 09:31:00,
2013-04-20 05:36:00,37.8,31.9,29.98,SSE,158,4.3,9.2,79,0.00,,,0.00,WUHU216HW,2013-04-20 09:36:00,
2013-04-20 05:41:00,37.8,31.9,29.98,South,180,2.9,9.8,79,0.00,,,0.00,WUHU216HW,2013-04-20 09:41:00,
2013-04-20 05:46:00,37.8,31.9,29.98,SSE,158,8.5,9.8,79,0.00,,,0.00,WUHU216HW,2013-04-20 09:46:00,
2013-04-20 05:51:00,37.8,31.9,29.98,SSE,158,7.2,9.4,79,0.00,,,0.00,WUHU216HW,2013-04-20 09:51:00,
2013-04-20 05:56:00,37.8,31.9,29.98,SSE,158,5.1,9.2,79,0.00,,,0.00,WUHU216HW,2013-04-20 09:56:00,
2013-04-20 06:01:00,37.8,31.9,29.98,SE,135,5.8,10.5,79,0.00,,,0.00,WUHU216HW,2013-04-20 10:01:00,
2013-04-20 06:06:00,37.8,31.6,29.98,SE,135,7.2,11.6,78,0.00,,,0.00,WUHU216HW,2013-04-20 10:06:00,
2013-04-20 06:11:00,37.8,31.6,29.99,SSE,158,4.0,11.6,78,0.00,,,0.00,WUHU216HW,2013-04-20 10:11:00,
2013-04-20 06:16:00,37.8,31.6,29.99,SE,135,6.7,11.4,78,0.00,,,0.00,WUHU216HW,2013-04-20 10:16:00,
2013-04-20 06:21:00,38.0,31.4,29.99,SE,135,8.7,13.0,77,0.00,,,0.00,WUHU216HW,2013-04-20 10:21:00,
2013-04-20 06:26:00,37.8,31.2,30.00,SSE,158,5.8,13.0,77,0.00,,,0.00,WUHU216HW,2013-04-20 10:26:00,
2013-04-20 06:31:00,37.8,31.2,30.00,SSE,158,8.9,9.8,77,0.00,,,0.00,WUHU216HW,2013-04-20 10:31:00,
2013-04-20 06:36:00,37.8,31.2,30.00,SE,135,8.1,12.1,77,0.00,,,0.00,WUHU216HW,2013-04-20 10:36:00,
2013-04-20 06:41:00,37.8,30.9,30.00,South,180,6.5,12.8,76,0.00,,,0.00,WUHU216HW,2013-04-20 10:41:00,
2013-04-20 06:46:00,37.8,30.9,30.00,SSE,158,7.2,12.8,76,0.00,,,0.00,WUHU216HW,2013-04-20 10:46:00,
2013-04-20 06:51:00,37.8,30.9,30.00,SSE,158,5.8,11.4,76,0.00,,,0.00,WUHU216HW,2013-04-20 10:51:00,
2013-04-20 06:56:00,37.8,31.2,30.01,SSE,158,5.8,13.4,77,0.00,,,0.00,WUHU216HW,2013-04-20 10:56:00,
2013-04-20 07:01:00,38.0,31.4,30.01,SSE,158,9.6,13.4,77,0.00,,,0.00,WUHU216HW,2013-04-20 11:01:00,
2013-04-20 07:06:00,38.2,31.6,30.01,SSE,158,6.3,11.0,77,0.00,,,0.00,WUHU216HW,2013-04-20 11:06:00,
2013-04-20 07:11:00,38.3,31.4,30.01,SSE,158,6.3,11.0,76,0.00,,,0.00,WUHU216HW,2013-04-20 11:11:00,
2013-04-20 07:16:00,38.3,31.4,30.02,SSE,158,10.5,12.3,76,0.00,,,0.00,WUHU216HW,2013-04-20 11:16:00,
2013-04-20 07:21:00,38.2,31.6,30.02,South,180,7.2,12.3,77,0.00,,,0.00,WUHU216HW,2013-04-20 11:21:00,
2013-04-20 07:26:00,38.0,31.4,30.02,SSE,158,11.2,16.3,77,0.00,,,0.00,WUHU216HW,2013-04-20 11:26:00,
2013-04-20 07:31:00,38.0,31.4,30.03,South,180,6.9,16.3,77,0.00,,,0.00,WUHU216HW,2013-04-20 11:31:00,
2013-04-20 07:36:00,37.8,30.9,30.03,SSE,158,6.3,13.2,76,0.00,,,0.00,WUHU216HW,2013-04-20 11:36:00,
2013-04-20 07:41:00,37.4,31.2,30.03,South,180,6.9,11.0,78,0.00,,,0.00,WUHU216HW,2013-04-20 11:41:00,
2013-04-20 07:46:00,37.3,31.1,30.04,South,180,4.7,11.0,78,0.00,,,0.00,WUHU216HW,2013-04-20 11:46:00,
2013-04-20 07:51:00,37.4,31.2,30.04,SE,135,7.8,10.3,78,0.00,,,0.00,WUHU216HW,2013-04-20 11:51:00,
2013-04-20 07:56:00,37.6,31.4,30.04,South,180,6.3,10.3,78,0.00,,,0.00,WUHU216HW,2013-04-20 11:56:00,
2013-04-20 08:01:00,37.6,30.8,30.04,South,180,8.7,8.7,76,0.00,,,0.00,WUHU216HW,2013-04-20 12:01:00,
2013-04-20 08:06:00,37.8,30.9,30.05,SSE,158,8.1,9.6,76,0.00,,,0.00,WUHU216HW,2013-04-20 12:06:00,
2013-04-20 08:11:00,37.8,30.6,30.05,South,180,6.9,9.6,75,0.00,,,0.00,WUHU216HW,2013-04-20 12:11:00,
2013-04-20 08:16:00,37.8,30.2,30.05,South,180,6.3,9.6,74,0.00,,,0.00,WUHU216HW,2013-04-20 12:16:00,
2013-04-20 08:21:00,38.0,30.1,30.05,South,180,4.7,9.6,73,0.00,,,0.00,WUHU216HW,2013-04-20 12:21:00,
2013-04-20 08:26:00,38.3,30.4,30.06,SSW,203,5.4,7.8,73,0.00,,,0.00,WUHU216HW,2013-04-20 12:26:00,
2013-04-20 08:31:00,38.7,30.1,30.06,South,180,6.5,12.1,71,0.00,,,0.00,WUHU216HW,2013-04-20 12:31:00,
2013-04-20 08:36:00,38.9,29.9,30.06,SE,135,7.4,12.1,70,0.00,,,0.00,WUHU216HW,2013-04-20 12:36:00,
2013-04-20 08:41:00,39.4,29.7,30.06,South,180,9.2,10.7,68,0.00,,,0.00,WUHU216HW,2013-04-20 12:41:00,
2013-04-20 08:46:00,40.0,29.8,30.06,South,180,7.6,11.6,67,0.00,,,0.00,WUHU216HW,2013-04-20 12:46:00,
2013-04-20 08:51:00,40.3,30.2,30.07,SSW,203,10.7,11.6,67,0.00,,,0.00,WUHU216HW,2013-04-20 12:51:00,
2013-04-20 08:56:00,40.3,28.7,30.07,South,180,9.6,14.3,63,0.00,,,0.00,WUHU216HW,2013-04-20 12:56:00,
2013-04-20 09:01:00,40.1,28.9,30.08,SSW,203,8.1,14.3,64,0.00,,,0.00,WUHU216HW,2013-04-20 13:01:00,
2013-04-20 09:06:00,40.3,28.3,30.08,SSW,203,8.5,13.0,62,0.00,,,0.00,WUHU216HW,2013-04-20 13:06:00,
2013-04-20 09:11:00,41.0,29.0,30.08,SSW,203,9.2,13.0,62,0.00,,,0.00,WUHU216HW,2013-04-20 13:11:00,
2013-04-20 09:16:00,42.8,30.2,30.08,SSE,158,8.5,10.5,61,0.00,,,0.00,WUHU216HW,2013-04-20 13:16:00,
2013-04-20 09:21:00,44.3,30.4,30.08,SSW,203,6.9,11.0,58,0.00,,,0.00,WUHU216HW,2013-04-20 13:21:00,
2013-04-20 09:26:00,44.6,29.0,30.08,South,180,9.2,12.1,54,0.00,,,0.00,WUHU216HW,2013-04-20 13:26:00,
2013-04-20 09:31:00,45.4,30.1,30.09,South,180,9.2,12.8,55,0.00,,,0.00,WUHU216HW,2013-04-20 13:31:00,
2013-04-20 09:36:00,45.2,29.0,30.09,SSW,203,8.7,13.4,53,0.00,,,0.00,WUHU216HW,2013-04-20 13:36:00,
2013-04-20 09:41:00,43.9,27.9,30.09,SSE,158,9.8,13.4,53,0.00,,,0.00,WUHU216HW,2013-04-20 13:41:00,
2013-04-20 09:46:00,42.8,27.3,30.09,SSW,203,5.4,13.4,54,0.00,,,0.00,WUHU216HW,2013-04-20 13:46:00,
2013-04-20 09:51:00,44.6,29.4,30.10,SSW,203,5.4,13.4,55,0.00,,,0.00,WUHU216HW,2013-04-20 13:51:00,
2013-04-20 09:56:00,45.7,29.1,30.10,South,180,8.5,15.0,52,0.00,,,0.00,WUHU216HW,2013-04-20 13:56:00,
2013-04-20 10:01:00,44.6,28.1,30.10,South,180,9.6,15.0,52,0.00,,,0.00,WUHU216HW,2013-04-20 14:01:00,
2013-04-20 10:06:00,43.7,27.3,30.11,South,180,8.5,11.0,52,0.00,,,0.00,WUHU216HW,2013-04-20 14:06:00,
2013-04-20 10:11:00,43.4,27.4,30.11,South,180,9.8,11.9,53,0.00,,,0.00,WUHU216HW,2013-04-20 14:11:00,
2013-04-20 10:16:00,43.4,27.4,30.11,South,180,7.6,13.0,53,0.00,,,0.00,WUHU216HW,2013-04-20 14:16:00,
2013-04-20 10:21:00,43.6,27.6,30.12,SSE,158,6.5,13.0,53,0.00,,,0.00,WUHU216HW,2013-04-20 14:21:00,
2013-04-20 10:26:00,45.2,29.4,30.12,SE,135,6.9,10.5,54,0.00,,,0.00,WUHU216HW,2013-04-20 14:26:00,
2013-04-20 10:31:00,45.4,28.3,30.12,South,180,7.8,12.1,51,0.00,,,0.00,WUHU216HW,2013-04-20 14:31:00,
2013-04-20 10:36:00,44.5,27.0,30.12,South,180,5.4,12.8,50,0.00,,,0.00,WUHU216HW,2013-04-20 14:36:00,
2013-04-20 10:41:00,43.9,27.0,30.13,SSW,203,9.8,14.8,51,0.00,,,0.00,WUHU216HW,2013-04-20 14:41:00,
2013-04-20 10:46:00,43.9,27.9,30.13,South,180,10.5,14.8,53,0.00,,,0.00,WUHU216HW,2013-04-20 14:46:00,
2013-04-20 10:51:00,44.3,28.2,30.13,SSW,203,7.4,12.5,53,0.00,,,0.00,WUHU216HW,2013-04-20 14:51:00,
2013-04-20 10:56:00,45.4,29.2,30.14,South,180,8.7,12.5,53,0.00,,,0.00,WUHU216HW,2013-04-20 14:56:00,
2013-04-20 11:01:00,45.5,28.0,30.14,SSW,203,11.4,11.4,50,0.00,,,0.00,WUHU216HW,2013-04-20 15:01:00,
2013-04-20 11:06:00,44.5,27.9,30.14,SSW,203,6.7,11.4,52,0.00,,,0.00,WUHU216HW,2013-04-20 15:06:00,
2013-04-20 11:11:00,44.3,28.2,30.15,SW,225,7.4,11.4,53,0.00,,,0.00,WUHU216HW,2013-04-20 15:11:00,
2013-04-20 11:16:00,45.0,28.9,30.15,SSW,203,6.3,12.1,53,0.00,,,0.00,WUHU216HW,2013-04-20 15:16:00,
2013-04-20 11:21:00,45.0,27.6,30.15,South,180,11.9,13.0,50,0.00,,,0.00,WUHU216HW,2013-04-20 15:21:00,
2013-04-20 11:26:00,45.4,27.8,30.15,South,180,7.8,14.3,50,0.00,,,0.00,WUHU216HW,2013-04-20 15:26:00,
2013-04-20 11:31:00,45.0,27.6,30.16,South,180,6.3,14.3,50,0.00,,,0.00,WUHU216HW,2013-04-20 15:31:00,
2013-04-20 11:36:00,45.0,27.6,30.16,South,180,12.3,13.4,50,0.00,,,0.00,WUHU216HW,2013-04-20 15:36:00,
2013-04-20 11:41:00,45.4,27.8,30.16,SW,225,7.4,13.4,50,0.00,,,0.00,WUHU216HW,2013-04-20 15:41:00,
2013-04-20 11:47:00,45.2,27.1,30.16,SSW,203,6.3,12.3,49,0.00,,,0.00,WUHU216HW,2013-04-20 15:47:00,
2013-04-20 11:52:00,45.0,26.5,30.16,SSE,158,6.9,13.9,48,0.00,,,0.00,WUHU216HW,2013-04-20 15:52:00,
2013-04-20 11:57:00,45.0,27.0,30.16,SSE,158,5.6,13.9,49,0.00,,,0.00,WUHU216HW,2013-04-20 15:57:00,
2013-04-20 12:02:00,45.4,27.3,30.16,SSE,158,9.4,12.1,49,0.00,,,0.00,WUHU216HW,2013-04-20 16:02:00,
2013-04-20 12:07:00,45.2,27.1,30.16,SSW,203,12.1,15.2,49,0.00,,,0.00,WUHU216HW,2013-04-20 16:07:00,
2013-04-20 12:12:00,45.0,27.6,30.16,South,180,7.8,15.2,50,0.00,,,0.00,WUHU216HW,2013-04-20 16:12:00,
2013-04-20 12:17:00,45.2,27.6,30.16,SSW,203,10.5,13.6,50,0.00,,,0.00,WUHU216HW,2013-04-20 16:17:00,
2013-04-20 12:22:00,45.4,27.8,30.17,SSE,158,7.2,13.6,50,0.00,,,0.00,WUHU216HW,2013-04-20 16:22:00,
2013-04-20 12:27:00,45.7,28.2,30.16,South,180,10.5,13.2,50,0.00,,,0.00,WUHU216HW,2013-04-20 16:27:00,
2013-04-20 12:32:00,46.1,27.4,30.17,South,180,10.3,13.2,48,0.00,,,0.00,WUHU216HW,2013-04-20 16:32:00,
2013-04-20 12:37:00,45.7,27.6,30.17,SW,225,11.0,13.2,49,0.00,,,0.00,WUHU216HW,2013-04-20 16:37:00,
2013-04-20 12:42:00,45.5,28.0,30.17,SW,225,6.3,13.4,50,0.00,,,0.00,WUHU216HW,2013-04-20 16:42:00,
2013-04-20 12:47:00,45.7,28.2,30.17,SSW,203,10.5,14.8,50,0.00,,,0.00,WUHU216HW,2013-04-20 16:47:00,
2013-04-20 12:52:00,45.5,26.9,30.17,South,180,6.5,14.8,48,0.00,,,0.00,WUHU216HW,2013-04-20 16:52:00,
2013-04-20 12:57:00,45.4,26.7,30.17,SSW,203,9.2,12.3,48,0.00,,,0.00,WUHU216HW,2013-04-20 16:57:00,
2013-04-20 13:02:00,45.5,26.9,30.17,South,180,4.7,11.2,48,0.00,,,0.00,WUHU216HW,2013-04-20 17:02:00,
2013-04-20 13:07:00,45.9,27.8,30.17,SSW,203,8.5,9.8,49,0.00,,,0.00,WUHU216HW,2013-04-20 17:07:00,
2013-04-20 13:12:00,46.1,27.4,30.17,South,180,9.6,12.1,48,0.00,,,0.00,WUHU216HW,2013-04-20 17:12:00,
2013-04-20 13:17:00,45.9,27.3,30.17,South,180,6.9,12.1,48,0.00,,,0.00,WUHU216HW,2013-04-20 17:17:00,
2013-04-20 13:21:00,45.7,26.6,30.18,SE,135,9.2,10.5,47,0.00,,,0.00,WUHU216HW,2013-04-20 17:21:00,
2013-04-20 13:26:00,45.7,26.6,30.18,South,180,4.7,14.1,47,0.00,,,0.00,WUHU216HW,2013-04-20 17:26:00,
2013-04-20 13:31:00,46.4,27.2,30.18,South,180,8.3,14.1,47,0.00,,,0.00,WUHU216HW,2013-04-20 17:31:00,
2013-04-20 13:36:00,46.1,26.8,30.18,South,180,9.2,13.9,47,0.00,,,0.00,WUHU216HW,2013-04-20 17:36:00,
2013-04-20 13:41:00,45.9,26.2,30.18,SSE,158,7.8,13.4,46,0.00,,,0.00,WUHU216HW,2013-04-20 17:41:00,
2013-04-20 13:46:00,45.7,27.1,30.18,SE,135,5.1,11.6,48,0.00,,,0.00,WUHU216HW,2013-04-20 17:46:00,
2013-04-20 13:52:00,46.1,27.9,30.19,South,180,8.5,11.6,49,0.00,,,0.00,WUHU216HW,2013-04-20 17:52:00,
2013-04-20 13:57:00,46.3,27.5,30.19,South,180,5.6,9.4,48,0.00,,,0.00,WUHU216HW,2013-04-20 17:57:00,
2013-04-20 14:02:00,46.3,27.5,30.19,SSW,203,5.4,12.8,48,0.00,,,0.00,WUHU216HW,2013-04-20 18:02:00,
2013-04-20 14:07:00,46.4,27.7,30.19,SSW,203,12.1,12.8,48,0.00,,,0.00,WUHU216HW,2013-04-20 18:07:00,
2013-04-20 14:12:00,46.3,27.5,30.19,South,180,4.9,12.1,48,0.00,,,0.00,WUHU216HW,2013-04-20 18:12:00,
2013-04-20 14:17:00,46.4,28.3,30.19,SSE,158,8.7,12.1,49,0.00,,,0.00,WUHU216HW,2013-04-20 18:17:00,
2013-04-20 14:22:00,46.4,28.3,30.19,SSE,158,8.7,8.7,49,0.00,,,0.00,WUHU216HW,2013-04-20 18:22:00,
2013-04-20 17:58:00,49.3,27.6,30.26,SE,135,7.4,7.4,43,0.00,,,0.00,WUHU216HW,2013-04-20 21:58:00,
2013-04-20 18:03:00,48.6,26.5,30.26,SSE,158,10.1,10.1,42,0.00,,,0.00,WUHU216HW,2013-04-20 22:03:00,
2013-04-20 18:08:00,47.9,26.3,30.26,South,180,4.5,10.1,43,0.00,,,0.00,WUHU216HW,2013-04-20 22:08:00,
2013-04-20 18:13:00,47.3,26.4,30.27,South,180,6.7,8.7,44,0.00,,,0.00,WUHU216HW,2013-04-20 22:13:00,
2013-04-20 18:18:00,47.2,26.2,30.27,SE,135,3.8,8.7,44,0.00,,,0.00,WUHU216HW,2013-04-20 22:18:00,
2013-04-20 18:23:00,47.3,26.4,30.27,SSW,203,8.3,9.8,44,0.00,,,0.00,WUHU216HW,2013-04-20 22:23:00,
2013-04-20 18:28:00,47.9,26.8,30.27,SW,225,4.7,9.8,44,0.00,,,0.00,WUHU216HW,2013-04-20 22:28:00,
2013-04-20 18:33:00,48.6,27.6,30.27,SSE,158,6.9,9.2,44,0.00,,,0.00,WUHU216HW,2013-04-20 22:33:00,
2013-04-20 18:38:00,48.6,27.0,30.27,SSE,158,5.4,9.2,43,0.00,,,0.00,WUHU216HW,2013-04-20 22:38:00,
2013-04-20 18:43:00,48.2,26.6,30.28,South,180,3.4,8.3,43,0.00,,,0.00,WUHU216HW,2013-04-20 22:43:00,
2013-04-20 18:48:00,47.9,26.8,30.28,South,180,5.6,6.9,44,0.00,,,0.00,WUHU216HW,2013-04-20 22:48:00,
2013-04-20 18:53:00,47.2,26.2,30.28,South,180,6.5,8.1,44,0.00,,,0.00,WUHU216HW,2013-04-20 22:53:00,
2013-04-20 18:58:00,47.0,26.0,30.28,SSW,203,7.6,8.3,44,0.00,,,0.00,WUHU216HW,2013-04-20 22:58:00,
2013-04-20 19:02:00,46.6,25.8,30.28,SSW,203,7.6,9.2,44,0.00,,,0.00,WUHU216HW,2013-04-20 23:02:00,
2013-04-20 19:07:00,46.4,25.6,30.28,SSW,203,5.6,9.2,44,0.00,,,0.00,WUHU216HW,2013-04-20 23:07:00,
2013-04-20 19:12:00,46.1,25.7,30.28,SSW,203,3.8,10.7,45,0.00,,,0.00,WUHU216HW,2013-04-20 23:12:00,
2013-04-20 19:17:00,46.1,25.7,30.28,SSW,203,6.3,10.7,45,0.00,,,0.00,WUHU216HW,2013-04-20 23:17:00,
2013-04-20 19:22:00,45.9,25.7,30.28,SSW,203,4.9,8.7,45,0.00,,,0.00,WUHU216HW,2013-04-20 23:22:00,
2013-04-20 19:27:00,45.9,26.2,30.28,South,180,4.5,7.6,46,0.00,,,0.00,WUHU216HW,2013-04-20 23:27:00,
2013-04-20 19:32:00,45.9,26.2,30.29,SSW,203,4.0,7.6,46,0.00,,,0.00,WUHU216HW,2013-04-20 23:32:00,
2013-04-20 19:37:00,45.7,26.0,30.29,SSW,203,4.9,5.8,46,0.00,,,0.00,WUHU216HW,2013-04-20 23:37:00,
2013-04-20 19:42:00,45.7,26.0,30.29,SSW,203,3.8,6.3,46,0.00,,,0.00,WUHU216HW,2013-04-20 23:42:00,
2013-04-20 19:47:00,45.7,26.0,30.29,West,270,4.7,6.3,46,0.00,,,0.00,WUHU216HW,2013-04-20 23:47:00,
2013-04-20 19:52:00,45.4,25.7,30.29,South,180,1.8,6.0,46,0.00,,,0.00,WUHU216HW,2013-04-20 23:52:00,
2013-04-20 19:57:00,45.4,25.7,30.30,SW,225,1.1,6.0,46,0.00,,,0.00,WUHU216HW,2013-04-20 23:57:00,
2013-04-20 20:02:00,45.0,25.4,30.30,SW,225,4.7,7.8,46,0.00,,,0.00,WUHU216HW,2013-04-21 00:02:00,
2013-04-20 20:07:00,44.8,25.8,30.30,SSW,203,4.3,7.8,47,0.00,,,0.00,WUHU216HW,2013-04-21 00:07:00,
2013-04-20 20:12:00,44.5,25.4,30.30,SSW,203,5.6,5.6,47,0.00,,,0.00,WUHU216HW,2013-04-21 00:12:00,
2013-04-20 20:17:00,44.3,25.2,30.31,SSW,203,3.1,5.6,47,0.00,,,0.00,WUHU216HW,2013-04-21 00:17:00,
2013-04-20 20:22:00,44.1,25.1,30.31,SSW,203,3.8,5.6,47,0.00,,,0.00,WUHU216HW,2013-04-21 00:22:00,
2013-04-20 20:27:00,43.9,25.5,30.31,SSW,203,4.3,5.6,48,0.00,,,0.00,WUHU216HW,2013-04-21 00:27:00,
2013-04-20 20:32:00,43.9,25.5,30.31,SSW,203,2.2,4.9,48,0.00,,,0.00,WUHU216HW,2013-04-21 00:32:00,
2013-04-20 20:37:00,43.7,25.3,30.31,SSW,203,1.8,3.1,48,0.00,,,0.00,WUHU216HW,2013-04-21 00:37:00,
2013-04-20 20:42:00,43.7,25.3,30.32,SW,225,5.1,5.1,48,0.00,,,0.00,WUHU216HW,2013-04-21 00:42:00,
2013-04-20 20:47:00,43.6,25.1,30.32,SSW,203,3.6,5.1,48,0.00,,,0.00,WUHU216HW,2013-04-21 00:47:00,
2013-04-20 20:52:00,43.6,25.1,30.32,SW,225,2.9,5.1,48,0.00,,,0.00,WUHU216HW,2013-04-21 00:52:00,
2013-04-20 20:57:00,43.4,25.5,30.32,SSW,203,3.1,4.7,49,0.00,,,0.00,WUHU216HW,2013-04-21 00:57:00,
2013-04-20 21:02:00,43.4,25.5,30.32,SSW,203,1.8,3.4,49,0.00,,,0.00,WUHU216HW,2013-04-21 01:02:00,
2013-04-20 21:08:00,43.4,25.5,30.33,SSW,203,1.1,3.1,49,0.00,,,0.00,WUHU216HW,2013-04-21 01:08:00,
2013-04-20 21:12:00,43.2,25.4,30.33,SSW,203,0.7,1.8,49,0.00,,,0.00,WUHU216HW,2013-04-21 01:12:00,
2013-04-20 21:18:00,43.2,25.9,30.33,SSW,203,0.4,1.1,50,0.00,,,0.00,WUHU216HW,2013-04-21 01:18:00,
2013-04-20 21:22:00,43.0,26.2,30.33,SSW,203,0.4,0.9,51,0.00,,,0.00,WUHU216HW,2013-04-21 01:22:00,
2013-04-20 21:28:00,43.0,26.2,30.34,SSW,203,0.4,0.7,51,0.00,,,0.00,WUHU216HW,2013-04-21 01:28:00,
2013-04-20 21:33:00,42.8,26.5,30.34,SSW,203,0.0,1.1,52,0.00,,,0.00,WUHU216HW,2013-04-21 01:33:00,
2013-04-20 21:38:00,42.3,25.9,30.34,SSW,203,0.2,1.1,52,0.00,,,0.00,WUHU216HW,2013-04-21 01:38:00,
2013-04-20 21:43:00,41.4,25.9,30.35,NW,315,0.9,1.1,54,0.00,,,0.00,WUHU216HW,2013-04-21 01:43:00,
2013-04-20 21:48:00,40.7,25.7,30.35,NW,315,0.4,1.1,55,0.00,,,0.00,WUHU216HW,2013-04-21 01:48:00,
2013-04-20 21:53:00,40.7,25.7,30.35,North,0,0.7,1.6,55,0.00,,,0.00,WUHU216HW,2013-04-21 01:53:00,
2013-04-20 21:58:00,40.1,25.6,30.35,North,0,0.0,1.6,56,0.00,,,0.00,WUHU216HW,2013-04-21 01:58:00,
2013-04-20 22:03:00,39.8,25.7,30.35,North,0,0.4,0.7,57,0.00,,,0.00,WUHU216HW,2013-04-21 02:03:00,
2013-04-20 22:08:00,39.4,25.7,30.35,North,0,0.9,1.3,58,0.00,,,0.00,WUHU216HW,2013-04-21 02:08:00,
2013-04-20 22:13:00,39.1,25.8,30.36,North,0,0.0,1.3,59,0.00,,,0.00,WUHU216HW,2013-04-21 02:13:00,
2013-04-20 22:18:00,38.9,25.8,30.36,North,0,0.4,1.1,59,0.00,,,0.00,WUHU216HW,2013-04-21 02:18:00,
2013-04-20 22:23:00,38.9,25.8,30.36,NNW,338,0.7,1.1,59,0.00,,,0.00,WUHU216HW,2013-04-21 02:23:00,
2013-04-20 22:28:00,38.7,26.0,30.36,NNE,23,1.1,1.8,60,0.00,,,0.00,WUHU216HW,2013-04-21 02:28:00,
2013-04-20 22:33:00,38.3,25.2,30.36,NNE,23,0.4,1.8,59,0.00,,,0.00,WUHU216HW,2013-04-21 02:33:00,
2013-04-20 22:38:00,38.2,25.0,30.36,NNE,23,0.0,1.1,59,0.00,,,0.00,WUHU216HW,2013-04-21 02:38:00,
2013-04-20 22:43:00,38.2,25.5,30.36,NNE,23,0.2,0.7,60,0.00,,,0.00,WUHU216HW,2013-04-21 02:43:00,
2013-04-20 22:48:00,38.0,25.8,30.36,NNE,23,0.0,0.4,61,0.00,,,0.00,WUHU216HW,2013-04-21 02:48:00,
2013-04-20 22:53:00,37.8,25.6,30.36,NNE,23,0.0,0.4,61,0.00,,,0.00,WUHU216HW,2013-04-21 02:53:00,
2013-04-20 22:58:00,37.4,25.2,30.37,NNE,23,0.0,0.2,61,0.00,,,0.00,WUHU216HW,2013-04-21 02:58:00,
2013-04-20 23:03:00,37.1,24.9,30.37,NNE,23,0.0,0.4,61,0.00,,,0.00,WUHU216HW,2013-04-21 03:03:00,
2013-04-20 23:08:00,36.7,24.9,30.37,North,0,0.0,0.4,62,0.00,,,0.00,WUHU216HW,2013-04-21 03:08:00,
2013-04-20 23:13:00,36.7,24.9,30.37,North,0,0.0,0.0,62,0.00,,,0.00,WUHU216HW,2013-04-21 03:13:00,
2013-04-20 23:58:00,36.0,25.4,30.39,WNW,293,0.0,0.0,65,0.00,,,0.00,WUHU216HW,2013-04-21 03:58:00,